SPCL

Details ICAO SPCL (PCL)
Name CAP FAP DAVID ABENZUR RENGIFO INTL
Region Peru
Timezone America/Lima (UTC-5.0)
Plans Departing 10
Arriving 15
Stats Elevation 513 ft / 156 m (AMSL)
Location -8.377940° -74.574298°
Runways 1
Magnetic Variation 4.695° W
Sunrise 2017-12-15 10:36:44 UTC / 2017-12-15 05:36:44 Local
Sunset 2017-12-15 23:13:09 UTC / 2017-12-15 18:13:09 Local
Advertisement - Login to hide

Runways

ID Width Length Bearing (true) Bearing (mag) Surface Threshold Offset Overrun Length
02 148 ft / 45 m 9,234 ft / 2,814 m 19.91° 24.61° Asphalt 0 ft / 0 m 0 ft / 0 m
20 148 ft / 45 m 9,234 ft / 2,814 m 199.91° 204.61° Asphalt 0 ft / 0 m 0 ft / 0 m

Map

Weather


0- 5 10 15 20 25 30 35+ Temperature / ° C

Clouds and Precipitation
Forecast for 2017-12-15 06:00 UTC. Updated 44 minutes ago

Ground ~20,000 ft ~40,000 ft Winds

METAR

SPCL 150600Z 00000KT 9999 SCT020 26/24 Q1010 RMK PP000

TAF

TAF SPCL 150500Z 1506/1606 02004KT 9999 SCT020 TX34/1520Z TN23/1511Z PROB40 1510/1514 27006KT BKN020 TEMPO 1518/1521 06010KT -SHRA FEW020TCU BKN070 BECMG 1521/1601 00000KT CAVOK

Frequencies

Tower 126.90 MHz PUCALLPA TWR
Approach 118.10 MHz PUCALLPA APP
Warning: Do not use this data for real-world aviation or navigation. No guarantee of current accuracy is given.